sensor_id;sensor_type;location;lat;lon;timestamp;temperature;humidity
11025;DHT22;22890;51.820;8.682;2022-07-22T00:00:06;18.50;99.90
11025;DHT22;22890;51.820;8.682;2022-07-22T00:02:34;18.50;99.90
11025;DHT22;22890;51.820;8.682;2022-07-22T00:05:01;18.50;99.90
11025;DHT22;22890;51.820;8.682;2022-07-22T00:07:28;18.50;99.90
11025;DHT22;22890;51.820;8.682;2022-07-22T00:09:55;18.50;99.90
11025;DHT22;22890;51.820;8.682;2022-07-22T00:12:21;18.40;99.90
11025;DHT22;22890;51.820;8.682;2022-07-22T00:14:48;18.40;99.90
11025;DHT22;22890;51.820;8.682;2022-07-22T00:17:15;18.40;99.90
11025;DHT22;22890;51.820;8.682;2022-07-22T00:19:41;18.40;99.90
11025;DHT22;22890;51.820;8.682;2022-07-22T00:22:08;18.40;99.90
11025;DHT22;22890;51.820;8.682;2022-07-22T00:24:35;18.40;99.90
11025;DHT22;22890;51.820;8.682;2022-07-22T00:27:02;18.30;99.90
11025;DHT22;22890;51.820;8.682;2022-07-22T00:29:28;18.40;99.90
11025;DHT22;22890;51.820;8.682;2022-07-22T00:31:55;18.40;99.90
11025;DHT22;22890;51.820;8.682;2022-07-22T00:34:22;18.40;99.90
11025;DHT22;22890;51.820;8.682;2022-07-22T00:36:48;18.40;99.90
11025;DHT22;22890;51.820;8.682;2022-07-22T00:39:15;18.40;99.90
11025;DHT22;22890;51.820;8.682;2022-07-22T00:41:42;18.50;99.90
11025;DHT22;22890;51.820;8.682;2022-07-22T00:44:09;18.40;99.90
11025;DHT22;22890;51.820;8.682;2022-07-22T00:46:37;18.40;99.90
11025;DHT22;22890;51.820;8.682;2022-07-22T00:49:06;18.30;99.90
11025;DHT22;22890;51.820;8.682;2022-07-22T00:51:33;18.30;99.90
11025;DHT22;22890;51.820;8.682;2022-07-22T00:54:01;18.40;99.90
11025;DHT22;22890;51.820;8.682;2022-07-22T00:56:30;18.40;99.90
11025;DHT22;22890;51.820;8.682;2022-07-22T00:59:00;18.50;99.90
11025;DHT22;22890;51.820;8.682;2022-07-22T01:01:27;18.40;99.90
11025;DHT22;22890;51.820;8.682;2022-07-22T01:03:54;18.30;99.90
11025;DHT22;22890;51.820;8.682;2022-07-22T01:06:29;18.30;99.90
11025;DHT22;22890;51.820;8.682;2022-07-22T01:08:56;18.20;99.90
11025;DHT22;22890;51.820;8.682;2022-07-22T01:11:24;18.40;99.90
11025;DHT22;22890;51.820;8.682;2022-07-22T01:13:52;18.30;99.90
11025;DHT22;22890;51.820;8.682;2022-07-22T01:16:19;18.20;99.90
11025;DHT22;22890;51.820;8.682;2022-07-22T01:18:46;18.30;99.90
11025;DHT22;22890;51.820;8.682;2022-07-22T01:21:14;18.20;99.90
11025;DHT22;22890;51.820;8.682;2022-07-22T01:23:41;18.10;99.90
11025;DHT22;22890;51.820;8.682;2022-07-22T01:26:08;18.10;99.90
11025;DHT22;22890;51.820;8.682;2022-07-22T01:28:35;18.10;99.90
11025;DHT22;22890;51.820;8.682;2022-07-22T01:31:01;18.10;99.90
11025;DHT22;22890;51.820;8.682;2022-07-22T01:33:28;18.10;99.90
11025;DHT22;22890;51.820;8.682;2022-07-22T01:35:55;18.10;99.90
11025;DHT22;22890;51.820;8.682;2022-07-22T01:38:22;18.00;99.90
11025;DHT22;22890;51.820;8.682;2022-07-22T01:40:49;18.10;99.90
11025;DHT22;22890;51.820;8.682;2022-07-22T01:43:16;17.90;99.90
11025;DHT22;22890;51.820;8.682;2022-07-22T01:45:45;17.80;99.90
11025;DHT22;22890;51.820;8.682;2022-07-22T01:48:12;17.80;99.90
11025;DHT22;22890;51.820;8.682;2022-07-22T01:50:40;17.80;99.90
11025;DHT22;22890;51.820;8.682;2022-07-22T01:53:07;17.80;99.90
11025;DHT22;22890;51.820;8.682;2022-07-22T01:55:34;17.70;99.90
11025;DHT22;22890;51.820;8.682;2022-07-22T01:58:01;19.20;99.90
11025;DHT22;22890;51.820;8.682;2022-07-22T02:00:31;17.70;99.90
11025;DHT22;22890;51.820;8.682;2022-07-22T02:02:57;17.80;99.90
11025;DHT22;22890;51.820;8.682;2022-07-22T02:05:24;17.80;99.90
11025;DHT22;22890;51.820;8.682;2022-07-22T02:07:51;17.70;99.90
11025;DHT22;22890;51.820;8.682;2022-07-22T02:10:17;17.80;99.90
11025;DHT22;22890;51.820;8.682;2022-07-22T02:12:44;17.70;99.90
11025;DHT22;22890;51.820;8.682;2022-07-22T02:15:11;20.60;99.90
11025;DHT22;22890;51.820;8.682;2022-07-22T02:17:37;17.70;99.90
11025;DHT22;22890;51.820;8.682;2022-07-22T02:20:04;17.80;99.90
11025;DHT22;22890;51.820;8.682;2022-07-22T02:22:31;16.60;99.90
11025;DHT22;22890;51.820;8.682;2022-07-22T02:24:58;17.70;99.90
11025;DHT22;22890;51.820;8.682;2022-07-22T02:27:24;17.60;99.90
11025;DHT22;22890;51.820;8.682;2022-07-22T02:29:51;17.60;99.90
11025;DHT22;22890;51.820;8.682;2022-07-22T02:32:18;17.60;99.90
11025;DHT22;22890;51.820;8.682;2022-07-22T02:34:44;17.50;99.90
11025;DHT22;22890;51.820;8.682;2022-07-22T02:37:11;17.50;99.90
11025;DHT22;22890;51.820;8.682;2022-07-22T02:39:38;17.40;99.90
11025;DHT22;22890;51.820;8.682;2022-07-22T02:42:04;17.40;99.90
11025;DHT22;22890;51.820;8.682;2022-07-22T02:44:31;17.40;99.90
11025;DHT22;22890;51.820;8.682;2022-07-22T02:46:58;17.40;99.90
11025;DHT22;22890;51.820;8.682;2022-07-22T02:49:25;17.40;99.90
11025;DHT22;22890;51.820;8.682;2022-07-22T02:51:51;17.50;99.90
11025;DHT22;22890;51.820;8.682;2022-07-22T02:54:18;17.30;99.90
11025;DHT22;22890;51.820;8.682;2022-07-22T02:56:44;17.30;99.90
11025;DHT22;22890;51.820;8.682;2022-07-22T02:59:11;17.30;99.90
11025;DHT22;22890;51.820;8.682;2022-07-22T03:01:38;17.40;99.90
11025;DHT22;22890;51.820;8.682;2022-07-22T03:04:05;17.50;99.90
11025;DHT22;22890;51.820;8.682;2022-07-22T03:06:31;17.50;99.90
11025;DHT22;22890;51.820;8.682;2022-07-22T03:08:58;17.50;99.90
11025;DHT22;22890;51.820;8.682;2022-07-22T03:11:25;17.40;99.90
11025;DHT22;22890;51.820;8.682;2022-07-22T03:13:52;17.50;99.90
11025;DHT22;22890;51.820;8.682;2022-07-22T03:16:18;17.50;99.90
11025;DHT22;22890;51.820;8.682;2022-07-22T03:18:45;17.50;99.90
11025;DHT22;22890;51.820;8.682;2022-07-22T03:21:12;17.50;99.90
11025;DHT22;22890;51.820;8.682;2022-07-22T03:23:38;17.50;99.90
11025;DHT22;22890;51.820;8.682;2022-07-22T03:26:05;17.50;99.90
11025;DHT22;22890;51.820;8.682;2022-07-22T03:28:32;17.50;99.90
11025;DHT22;22890;51.820;8.682;2022-07-22T03:30:58;17.70;99.90
11025;DHT22;22890;51.820;8.682;2022-07-22T03:33:25;17.50;99.90
11025;DHT22;22890;51.820;8.682;2022-07-22T03:35:52;17.40;99.90
11025;DHT22;22890;51.820;8.682;2022-07-22T03:38:18;17.40;99.90
11025;DHT22;22890;51.820;8.682;2022-07-22T03:40:45;17.40;99.90
11025;DHT22;22890;51.820;8.682;2022-07-22T03:43:12;17.50;99.90
11025;DHT22;22890;51.820;8.682;2022-07-22T03:45:39;17.50;99.90
11025;DHT22;22890;51.820;8.682;2022-07-22T03:48:05;17.40;99.90
11025;DHT22;22890;51.820;8.682;2022-07-22T03:50:32;17.40;99.90
11025;DHT22;22890;51.820;8.682;2022-07-22T03:52:59;17.50;99.90
11025;DHT22;22890;51.820;8.682;2022-07-22T03:55:26;17.50;99.90
11025;DHT22;22890;51.820;8.682;2022-07-22T03:57:53;17.50;99.90
11025;DHT22;22890;51.820;8.682;2022-07-22T04:00:20;17.50;99.90
11025;DHT22;22890;51.820;8.682;2022-07-22T04:02:46;17.40;99.90
11025;DHT22;22890;51.820;8.682;2022-07-22T04:05:13;17.40;99.90
11025;DHT22;22890;51.820;8.682;2022-07-22T04:07:40;17.60;99.90
11025;DHT22;22890;51.820;8.682;2022-07-22T04:10:07;17.70;99.90
11025;DHT22;22890;51.820;8.682;2022-07-22T04:12:38;17.50;99.90
11025;DHT22;22890;51.820;8.682;2022-07-22T04:15:06;17.70;99.90
11025;DHT22;22890;51.820;8.682;2022-07-22T04:17:33;17.50;99.90
11025;DHT22;22890;51.820;8.682;2022-07-22T04:20:00;17.80;99.90
11025;DHT22;22890;51.820;8.682;2022-07-22T04:22:27;17.50;99.90
11025;DHT22;22890;51.820;8.682;2022-07-22T04:24:54;17.60;99.90
11025;DHT22;22890;51.820;8.682;2022-07-22T04:27:21;17.60;99.90
11025;DHT22;22890;51.820;8.682;2022-07-22T04:29:48;17.70;99.90
11025;DHT22;22890;51.820;8.682;2022-07-22T04:32:14;17.60;99.90
11025;DHT22;22890;51.820;8.682;2022-07-22T04:34:41;17.50;99.90
11025;DHT22;22890;51.820;8.682;2022-07-22T04:37:08;17.50;99.90
11025;DHT22;22890;51.820;8.682;2022-07-22T04:39:35;17.50;99.90
11025;DHT22;22890;51.820;8.682;2022-07-22T04:42:02;17.50;99.90
11025;DHT22;22890;51.820;8.682;2022-07-22T04:44:28;17.50;99.90
11025;DHT22;22890;51.820;8.682;2022-07-22T04:46:55;17.50;99.90
11025;DHT22;22890;51.820;8.682;2022-07-22T04:49:21;17.50;99.90
11025;DHT22;22890;51.820;8.682;2022-07-22T04:51:48;17.70;99.90
11025;DHT22;22890;51.820;8.682;2022-07-22T04:54:15;17.50;99.90
11025;DHT22;22890;51.820;8.682;2022-07-22T04:56:42;17.50;99.90
11025;DHT22;22890;51.820;8.682;2022-07-22T04:59:10;17.50;99.90
11025;DHT22;22890;51.820;8.682;2022-07-22T05:01:37;17.60;99.90
11025;DHT22;22890;51.820;8.682;2022-07-22T05:04:06;17.60;99.90
11025;DHT22;22890;51.820;8.682;2022-07-22T05:06:32;17.50;99.90
11025;DHT22;22890;51.820;8.682;2022-07-22T05:08:59;17.70;99.90
11025;DHT22;22890;51.820;8.682;2022-07-22T05:11:26;17.60;99.90
11025;DHT22;22890;51.820;8.682;2022-07-22T05:13:53;17.70;99.90
11025;DHT22;22890;51.820;8.682;2022-07-22T05:16:19;17.60;99.90
11025;DHT22;22890;51.820;8.682;2022-07-22T05:18:46;17.60;99.90
11025;DHT22;22890;51.820;8.682;2022-07-22T05:21:13;17.60;99.90
11025;DHT22;22890;51.820;8.682;2022-07-22T05:23:39;17.60;99.90
11025;DHT22;22890;51.820;8.682;2022-07-22T05:26:06;17.60;99.90
11025;DHT22;22890;51.820;8.682;2022-07-22T05:28:33;17.70;99.90
11025;DHT22;22890;51.820;8.682;2022-07-22T05:31:00;17.60;99.90
11025;DHT22;22890;51.820;8.682;2022-07-22T05:33:26;17.60;99.90
11025;DHT22;22890;51.820;8.682;2022-07-22T05:35:53;17.70;99.90
11025;DHT22;22890;51.820;8.682;2022-07-22T05:38:20;17.50;99.90
11025;DHT22;22890;51.820;8.682;2022-07-22T05:40:47;17.50;99.90
11025;DHT22;22890;51.820;8.682;2022-07-22T05:43:13;17.60;99.90
11025;DHT22;22890;51.820;8.682;2022-07-22T05:45:40;17.50;99.90
11025;DHT22;22890;51.820;8.682;2022-07-22T05:48:06;17.50;99.90
11025;DHT22;22890;51.820;8.682;2022-07-22T05:50:33;17.60;99.90
11025;DHT22;22890;51.820;8.682;2022-07-22T05:53:00;17.50;99.90
11025;DHT22;22890;51.820;8.682;2022-07-22T05:55:26;17.50;99.90
11025;DHT22;22890;51.820;8.682;2022-07-22T05:57:53;17.50;99.90
11025;DHT22;22890;51.820;8.682;2022-07-22T06:00:19;17.40;99.90
11025;DHT22;22890;51.820;8.682;2022-07-22T06:02:46;17.50;99.90
11025;DHT22;22890;51.820;8.682;2022-07-22T06:05:13;17.40;99.90
11025;DHT22;22890;51.820;8.682;2022-07-22T06:07:59;17.40;99.90
11025;DHT22;22890;51.820;8.682;2022-07-22T06:10:26;17.40;99.90
11025;DHT22;22890;51.820;8.682;2022-07-22T06:12:52;17.40;99.90
11025;DHT22;22890;51.820;8.682;2022-07-22T06:15:19;17.50;99.90
11025;DHT22;22890;51.820;8.682;2022-07-22T06:17:46;17.40;99.90
11025;DHT22;22890;51.820;8.682;2022-07-22T06:20:12;17.30;99.90
11025;DHT22;22890;51.820;8.682;2022-07-22T06:22:40;17.30;99.90
11025;DHT22;22890;51.820;8.682;2022-07-22T06:25:07;17.30;99.90
11025;DHT22;22890;51.820;8.682;2022-07-22T06:27:54;17.30;99.90
11025;DHT22;22890;51.820;8.682;2022-07-22T06:30:21;17.50;99.90
11025;DHT22;22890;51.820;8.682;2022-07-22T06:32:48;17.30;99.90
11025;DHT22;22890;51.820;8.682;2022-07-22T06:35:21;17.40;99.90
11025;DHT22;22890;51.820;8.682;2022-07-22T06:37:48;17.40;99.90
11025;DHT22;22890;51.820;8.682;2022-07-22T06:40:31;17.40;99.90
11025;DHT22;22890;51.820;8.682;2022-07-22T06:42:58;17.40;99.90
11025;DHT22;22890;51.820;8.682;2022-07-22T06:45:25;17.40;99.90
11025;DHT22;22890;51.820;8.682;2022-07-22T06:47:52;17.40;99.90
11025;DHT22;22890;51.820;8.682;2022-07-22T06:50:19;17.40;99.90
11025;DHT22;22890;51.820;8.682;2022-07-22T06:52:46;17.40;99.90
11025;DHT22;22890;51.820;8.682;2022-07-22T06:55:12;17.40;99.90
11025;DHT22;22890;51.820;8.682;2022-07-22T06:57:39;17.50;99.90
11025;DHT22;22890;51.820;8.682;2022-07-22T07:00:07;17.40;99.90
11025;DHT22;22890;51.820;8.682;2022-07-22T07:02:35;17.40;99.90
11025;DHT22;22890;51.820;8.682;2022-07-22T07:05:02;17.50;99.90
11025;DHT22;22890;51.820;8.682;2022-07-22T07:07:29;17.50;99.90
11025;DHT22;22890;51.820;8.682;2022-07-22T07:09:56;17.40;99.90
11025;DHT22;22890;51.820;8.682;2022-07-22T07:12:22;17.50;99.90
11025;DHT22;22890;51.820;8.682;2022-07-22T07:14:49;17.50;99.90
11025;DHT22;22890;51.820;8.682;2022-07-22T07:17:35;17.40;99.90
11025;DHT22;22890;51.820;8.682;2022-07-22T07:20:03;17.50;99.90
11025;DHT22;22890;51.820;8.682;2022-07-22T07:22:30;18.10;99.90
11025;DHT22;22890;51.820;8.682;2022-07-22T07:24:56;17.40;99.90
11025;DHT22;22890;51.820;8.682;2022-07-22T07:27:23;17.40;99.90
11025;DHT22;22890;51.820;8.682;2022-07-22T07:29:51;17.40;99.90
11025;DHT22;22890;51.820;8.682;2022-07-22T07:32:18;17.40;99.90
11025;DHT22;22890;51.820;8.682;2022-07-22T07:34:44;17.40;99.90
11025;DHT22;22890;51.820;8.682;2022-07-22T07:37:11;17.40;99.90
11025;DHT22;22890;51.820;8.682;2022-07-22T07:39:38;17.40;99.90
11025;DHT22;22890;51.820;8.682;2022-07-22T07:42:05;17.50;99.90
11025;DHT22;22890;51.820;8.682;2022-07-22T07:44:32;17.60;99.90
11025;DHT22;22890;51.820;8.682;2022-07-22T07:46:58;17.60;99.90
11025;DHT22;22890;51.820;8.682;2022-07-22T07:49:25;17.70;99.90
11025;DHT22;22890;51.820;8.682;2022-07-22T07:51:52;17.70;99.90
11025;DHT22;22890;51.820;8.682;2022-07-22T07:54:19;17.80;99.90
11025;DHT22;22890;51.820;8.682;2022-07-22T07:56:49;17.80;99.90
11025;DHT22;22890;51.820;8.682;2022-07-22T07:59:17;17.80;99.90
11025;DHT22;22890;51.820;8.682;2022-07-22T08:01:54;18.00;99.90
11025;DHT22;22890;51.820;8.682;2022-07-22T08:04:25;17.90;99.90
11025;DHT22;22890;51.820;8.682;2022-07-22T08:07:05;17.90;99.90
11025;DHT22;22890;51.820;8.682;2022-07-22T08:09:33;18.00;99.90
11025;DHT22;22890;51.820;8.682;2022-07-22T08:12:02;18.10;99.90
11025;DHT22;22890;51.820;8.682;2022-07-22T08:14:30;18.10;99.90
11025;DHT22;22890;51.820;8.682;2022-07-22T08:16:57;18.20;99.90
11025;DHT22;22890;51.820;8.682;2022-07-22T08:19:24;18.20;99.90
11025;DHT22;22890;51.820;8.682;2022-07-22T08:21:51;18.20;99.90
11025;DHT22;22890;51.820;8.682;2022-07-22T08:24:18;18.40;99.90
11025;DHT22;22890;51.820;8.682;2022-07-22T08:26:44;18.20;99.90
11025;DHT22;22890;51.820;8.682;2022-07-22T08:29:11;18.10;99.90
11025;DHT22;22890;51.820;8.682;2022-07-22T08:31:38;18.30;99.90
11025;DHT22;22890;51.820;8.682;2022-07-22T08:34:05;18.20;99.90
11025;DHT22;22890;51.820;8.682;2022-07-22T08:36:32;18.20;99.90
11025;DHT22;22890;51.820;8.682;2022-07-22T08:38:59;18.10;99.90
11025;DHT22;22890;51.820;8.682;2022-07-22T08:41:34;18.20;99.90
11025;DHT22;22890;51.820;8.682;2022-07-22T08:44:04;18.20;99.90
11025;DHT22;22890;51.820;8.682;2022-07-22T08:46:32;18.20;99.90
11025;DHT22;22890;51.820;8.682;2022-07-22T08:48:59;18.20;99.90
11025;DHT22;22890;51.820;8.682;2022-07-22T08:51:28;18.10;99.90
11025;DHT22;22890;51.820;8.682;2022-07-22T08:53:55;18.10;99.90
11025;DHT22;22890;51.820;8.682;2022-07-22T08:56:23;18.20;99.90
11025;DHT22;22890;51.820;8.682;2022-07-22T09:04:12;18.30;99.90
11025;DHT22;22890;51.820;8.682;2022-07-22T09:06:47;18.30;99.90
11025;DHT22;22890;51.820;8.682;2022-07-22T09:09:14;18.30;99.90
11025;DHT22;22890;51.820;8.682;2022-07-22T09:11:41;18.30;99.90
11025;DHT22;22890;51.820;8.682;2022-07-22T09:14:08;18.40;99.90
11025;DHT22;22890;51.820;8.682;2022-07-22T09:16:52;18.50;99.90
11025;DHT22;22890;51.820;8.682;2022-07-22T09:19:31;18.60;99.90
11025;DHT22;22890;51.820;8.682;2022-07-22T09:21:58;18.70;99.90
11025;DHT22;22890;51.820;8.682;2022-07-22T09:24:31;18.80;99.90
11025;DHT22;22890;51.820;8.682;2022-07-22T09:26:58;19.00;99.90
11025;DHT22;22890;51.820;8.682;2022-07-22T09:29:26;19.10;99.90
11025;DHT22;22890;51.820;8.682;2022-07-22T09:32:02;19.30;99.90
11025;DHT22;22890;51.820;8.682;2022-07-22T09:34:31;19.30;99.90
11025;DHT22;22890;51.820;8.682;2022-07-22T09:37:00;19.30;99.90
11025;DHT22;22890;51.820;8.682;2022-07-22T09:39:30;19.40;99.90
11025;DHT22;22890;51.820;8.682;2022-07-22T09:42:02;19.40;99.90
11025;DHT22;22890;51.820;8.682;2022-07-22T09:44:30;19.40;99.90
11025;DHT22;22890;51.820;8.682;2022-07-22T09:46:56;19.40;99.90
11025;DHT22;22890;51.820;8.682;2022-07-22T09:49:36;19.30;99.90
11025;DHT22;22890;51.820;8.682;2022-07-22T09:52:05;19.30;99.90
11025;DHT22;22890;51.820;8.682;2022-07-22T09:54:32;19.40;99.90
11025;DHT22;22890;51.820;8.682;2022-07-22T09:56:59;19.40;99.90
11025;DHT22;22890;51.820;8.682;2022-07-22T09:59:26;19.40;99.90
11025;DHT22;22890;51.820;8.682;2022-07-22T10:01:58;19.40;99.90
11025;DHT22;22890;51.820;8.682;2022-07-22T10:04:26;19.30;99.90
11025;DHT22;22890;51.820;8.682;2022-07-22T10:06:58;19.30;99.90
11025;DHT22;22890;51.820;8.682;2022-07-22T10:09:25;19.20;99.90
11025;DHT22;22890;51.820;8.682;2022-07-22T10:11:53;19.20;99.90
11025;DHT22;22890;51.820;8.682;2022-07-22T10:14:21;19.30;99.90
11025;DHT22;22890;51.820;8.682;2022-07-22T10:16:48;19.20;99.90
11025;DHT22;22890;51.820;8.682;2022-07-22T10:19:16;19.30;99.90
11025;DHT22;22890;51.820;8.682;2022-07-22T10:21:43;19.40;99.90
11025;DHT22;22890;51.820;8.682;2022-07-22T10:24:14;19.40;99.90
11025;DHT22;22890;51.820;8.682;2022-07-22T10:26:54;19.50;99.90
11025;DHT22;22890;51.820;8.682;2022-07-22T10:29:31;19.50;99.90
11025;DHT22;22890;51.820;8.682;2022-07-22T10:35:18;19.50;99.90
11025;DHT22;22890;51.820;8.682;2022-07-22T10:37:41;19.40;99.90
11025;DHT22;22890;51.820;8.682;2022-07-22T10:40:14;19.40;99.90
11025;DHT22;22890;51.820;8.682;2022-07-22T10:45:28;19.20;99.90
11025;DHT22;22890;51.820;8.682;2022-07-22T10:48:07;19.20;99.90
11025;DHT22;22890;51.820;8.682;2022-07-22T10:53:10;19.20;99.90
11025;DHT22;22890;51.820;8.682;2022-07-22T10:55:38;19.20;99.90
11025;DHT22;22890;51.820;8.682;2022-07-22T11:01:02;19.10;99.90
11025;DHT22;22890;51.820;8.682;2022-07-22T11:03:30;19.10;99.90
11025;DHT22;22890;51.820;8.682;2022-07-22T11:08:52;19.10;99.90
11025;DHT22;22890;51.820;8.682;2022-07-22T11:11:34;19.00;99.90
11025;DHT22;22890;51.820;8.682;2022-07-22T11:14:01;19.10;99.90
11025;DHT22;22890;51.820;8.682;2022-07-22T11:16:28;19.10;99.90
11025;DHT22;22890;51.820;8.682;2022-07-22T11:19:00;19.40;99.90
11025;DHT22;22890;51.820;8.682;2022-07-22T11:21:32;19.20;99.90
11025;DHT22;22890;51.820;8.682;2022-07-22T11:24:08;19.30;99.90
11025;DHT22;22890;51.820;8.682;2022-07-22T11:26:47;19.30;99.90
11025;DHT22;22890;51.820;8.682;2022-07-22T11:29:37;19.40;99.90
11025;DHT22;22890;51.820;8.682;2022-07-22T11:32:09;19.40;99.90
11025;DHT22;22890;51.820;8.682;2022-07-22T11:34:39;19.40;99.90
11025;DHT22;22890;51.820;8.682;2022-07-22T11:37:09;19.50;99.90
11025;DHT22;22890;51.820;8.682;2022-07-22T11:39:35;19.50;99.90
11025;DHT22;22890;51.820;8.682;2022-07-22T11:42:03;19.50;99.90
11025;DHT22;22890;51.820;8.682;2022-07-22T11:44:32;19.40;99.90
11025;DHT22;22890;51.820;8.682;2022-07-22T11:46:59;19.40;99.90
11025;DHT22;22890;51.820;8.682;2022-07-22T11:49:28;19.60;99.90
11025;DHT22;22890;51.820;8.682;2022-07-22T11:51:56;19.50;99.90
11025;DHT22;22890;51.820;8.682;2022-07-22T11:54:23;19.50;99.90
11025;DHT22;22890;51.820;8.682;2022-07-22T11:56:50;19.60;99.90
11025;DHT22;22890;51.820;8.682;2022-07-22T11:59:22;19.50;99.90
11025;DHT22;22890;51.820;8.682;2022-07-22T12:01:49;19.40;99.90
11025;DHT22;22890;51.820;8.682;2022-07-22T12:04:19;19.30;99.90
11025;DHT22;22890;51.820;8.682;2022-07-22T12:06:47;19.30;99.90
11025;DHT22;22890;51.820;8.682;2022-07-22T12:09:26;19.50;99.90
11025;DHT22;22890;51.820;8.682;2022-07-22T12:11:55;19.30;99.90
11025;DHT22;22890;51.820;8.682;2022-07-22T12:14:26;19.30;99.90
11025;DHT22;22890;51.820;8.682;2022-07-22T12:16:56;19.40;99.90
11025;DHT22;22890;51.820;8.682;2022-07-22T12:19:23;19.40;99.90
11025;DHT22;22890;51.820;8.682;2022-07-22T12:21:54;19.30;99.90
11025;DHT22;22890;51.820;8.682;2022-07-22T12:27:13;19.30;99.90
11025;DHT22;22890;51.820;8.682;2022-07-22T12:32:08;19.20;99.90
11025;DHT22;22890;51.820;8.682;2022-07-22T12:39:39;19.40;99.90
11025;DHT22;22890;51.820;8.682;2022-07-22T12:42:16;19.40;99.90
11025;DHT22;22890;51.820;8.682;2022-07-22T12:45:03;19.50;99.90
11025;DHT22;22890;51.820;8.682;2022-07-22T12:50:16;19.60;99.90
11025;DHT22;22890;51.820;8.682;2022-07-22T12:52:43;19.60;99.90
11025;DHT22;22890;51.820;8.682;2022-07-22T12:55:31;19.70;99.90
11025;DHT22;22890;51.820;8.682;2022-07-22T12:57:58;19.50;99.90
11025;DHT22;22890;51.820;8.682;2022-07-22T13:00:31;19.60;99.90
11025;DHT22;22890;51.820;8.682;2022-07-22T13:02:58;19.60;99.90
11025;DHT22;22890;51.820;8.682;2022-07-22T13:05:25;19.60;99.90
11025;DHT22;22890;51.820;8.682;2022-07-22T13:07:53;19.50;99.90
11025;DHT22;22890;51.820;8.682;2022-07-22T13:10:21;19.60;99.90
11025;DHT22;22890;51.820;8.682;2022-07-22T13:12:48;19.50;99.90
11025;DHT22;22890;51.820;8.682;2022-07-22T13:15:15;19.70;99.90
11025;DHT22;22890;51.820;8.682;2022-07-22T13:17:42;19.60;99.90
11025;DHT22;22890;51.820;8.682;2022-07-22T13:20:12;19.70;99.90
11025;DHT22;22890;51.820;8.682;2022-07-22T13:22:40;19.80;99.90
11025;DHT22;22890;51.820;8.682;2022-07-22T13:25:07;19.90;99.90
11025;DHT22;22890;51.820;8.682;2022-07-22T13:27:33;19.90;99.90
11025;DHT22;22890;51.820;8.682;2022-07-22T13:30:01;20.00;99.90
11025;DHT22;22890;51.820;8.682;2022-07-22T13:32:28;20.00;99.90
11025;DHT22;22890;51.820;8.682;2022-07-22T13:35:13;20.00;99.90
11025;DHT22;22890;51.820;8.682;2022-07-22T13:37:40;20.10;99.90
11025;DHT22;22890;51.820;8.682;2022-07-22T13:40:08;20.10;99.90
11025;DHT22;22890;51.820;8.682;2022-07-22T13:42:35;20.00;99.90
11025;DHT22;22890;51.820;8.682;2022-07-22T13:45:02;20.00;99.90
11025;DHT22;22890;51.820;8.682;2022-07-22T13:47:29;20.00;99.90
11025;DHT22;22890;51.820;8.682;2022-07-22T13:49:56;20.00;99.90
11025;DHT22;22890;51.820;8.682;2022-07-22T13:52:23;19.90;99.90
11025;DHT22;22890;51.820;8.682;2022-07-22T13:54:50;20.00;99.90
11025;DHT22;22890;51.820;8.682;2022-07-22T13:57:18;20.10;99.90
11025;DHT22;22890;51.820;8.682;2022-07-22T13:59:45;20.10;99.90
11025;DHT22;22890;51.820;8.682;2022-07-22T14:02:12;19.90;99.90
11025;DHT22;22890;51.820;8.682;2022-07-22T14:04:38;19.90;99.90
11025;DHT22;22890;51.820;8.682;2022-07-22T14:07:05;19.80;99.90
11025;DHT22;22890;51.820;8.682;2022-07-22T14:09:38;19.80;99.90
11025;DHT22;22890;51.820;8.682;2022-07-22T14:12:05;20.10;99.90
11025;DHT22;22890;51.820;8.682;2022-07-22T14:14:31;19.90;99.90
11025;DHT22;22890;51.820;8.682;2022-07-22T14:16:58;19.90;99.90
11025;DHT22;22890;51.820;8.682;2022-07-22T14:19:26;19.90;99.90
11025;DHT22;22890;51.820;8.682;2022-07-22T14:21:53;19.80;99.90
11025;DHT22;22890;51.820;8.682;2022-07-22T14:24:19;19.80;99.90
11025;DHT22;22890;51.820;8.682;2022-07-22T14:26:46;19.80;99.90
11025;DHT22;22890;51.820;8.682;2022-07-22T14:29:13;19.80;99.90
11025;DHT22;22890;51.820;8.682;2022-07-22T14:31:40;20.00;99.90
11025;DHT22;22890;51.820;8.682;2022-07-22T14:34:06;20.00;99.90
11025;DHT22;22890;51.820;8.682;2022-07-22T14:36:34;20.10;99.90
11025;DHT22;22890;51.820;8.682;2022-07-22T14:39:00;20.10;99.90
11025;DHT22;22890;51.820;8.682;2022-07-22T14:41:27;20.10;99.90
11025;DHT22;22890;51.820;8.682;2022-07-22T14:43:54;20.20;99.90
11025;DHT22;22890;51.820;8.682;2022-07-22T14:46:21;20.30;99.90
11025;DHT22;22890;51.820;8.682;2022-07-22T14:48:47;20.40;99.90
11025;DHT22;22890;51.820;8.682;2022-07-22T14:51:20;20.40;99.90
11025;DHT22;22890;51.820;8.682;2022-07-22T14:53:48;20.40;99.90
11025;DHT22;22890;51.820;8.682;2022-07-22T14:56:15;20.30;99.90
11025;DHT22;22890;51.820;8.682;2022-07-22T14:58:42;20.30;99.90
11025;DHT22;22890;51.820;8.682;2022-07-22T15:01:09;20.30;99.90
11025;DHT22;22890;51.820;8.682;2022-07-22T15:03:36;20.30;99.90
11025;DHT22;22890;51.820;8.682;2022-07-22T15:06:03;20.30;99.90
11025;DHT22;22890;51.820;8.682;2022-07-22T15:08:29;20.30;99.90
11025;DHT22;22890;51.820;8.682;2022-07-22T15:10:56;20.40;99.90
11025;DHT22;22890;51.820;8.682;2022-07-22T15:13:22;20.40;99.90
11025;DHT22;22890;51.820;8.682;2022-07-22T15:15:53;20.40;99.90
11025;DHT22;22890;51.820;8.682;2022-07-22T15:18:20;20.40;99.90
11025;DHT22;22890;51.820;8.682;2022-07-22T15:20:47;20.40;99.90
11025;DHT22;22890;51.820;8.682;2022-07-22T15:23:14;20.50;99.90
11025;DHT22;22890;51.820;8.682;2022-07-22T15:25:41;20.50;99.90
11025;DHT22;22890;51.820;8.682;2022-07-22T15:28:08;20.40;99.90
11025;DHT22;22890;51.820;8.682;2022-07-22T15:30:56;20.30;99.90
11025;DHT22;22890;51.820;8.682;2022-07-22T15:33:22;20.20;99.90
11025;DHT22;22890;51.820;8.682;2022-07-22T15:36:01;20.10;99.90
11025;DHT22;22890;51.820;8.682;2022-07-22T15:38:27;20.10;99.90
11025;DHT22;22890;51.820;8.682;2022-07-22T15:40:54;20.20;99.90
11025;DHT22;22890;51.820;8.682;2022-07-22T15:43:21;20.30;99.90
11025;DHT22;22890;51.820;8.682;2022-07-22T15:45:48;20.30;99.90
11025;DHT22;22890;51.820;8.682;2022-07-22T15:48:14;20.40;99.90
11025;DHT22;22890;51.820;8.682;2022-07-22T15:50:42;20.30;99.90
11025;DHT22;22890;51.820;8.682;2022-07-22T15:53:08;20.30;99.90
11025;DHT22;22890;51.820;8.682;2022-07-22T15:55:35;20.30;99.90
11025;DHT22;22890;51.820;8.682;2022-07-22T15:58:02;20.30;99.90
11025;DHT22;22890;51.820;8.682;2022-07-22T16:00:48;20.20;99.90
11025;DHT22;22890;51.820;8.682;2022-07-22T16:03:14;20.10;99.90
11025;DHT22;22890;51.820;8.682;2022-07-22T16:05:41;20.10;99.90
11025;DHT22;22890;51.820;8.682;2022-07-22T16:08:08;20.10;99.90